createdAt,value
2018-07-02T00:00:45.608Z,0
2018-07-02T00:01:47.003Z,0
2018-07-02T00:02:48.402Z,0
2018-07-02T00:03:49.793Z,0
2018-07-02T00:04:51.184Z,0
2018-07-02T00:05:52.580Z,0
2018-07-02T00:06:54.022Z,0
2018-07-02T00:07:55.405Z,0
2018-07-02T00:08:56.806Z,0
2018-07-02T00:09:58.193Z,0
2018-07-02T00:10:59.589Z,0
2018-07-02T00:12:00.990Z,0
2018-07-02T00:13:02.385Z,0
2018-07-02T00:14:03.782Z,0
2018-07-02T00:15:05.181Z,0
2018-07-02T00:16:06.567Z,0
2018-07-02T00:17:07.961Z,0
2018-07-02T00:18:09.355Z,0
2018-07-02T00:19:10.749Z,0
2018-07-02T00:20:12.143Z,0
2018-07-02T00:21:13.551Z,0
2018-07-02T00:22:14.949Z,0
2018-07-02T00:23:16.336Z,0
2018-07-02T00:24:17.730Z,0
2018-07-02T00:25:19.124Z,0
2018-07-02T00:26:20.516Z,0
2018-07-02T00:27:21.909Z,0
2018-07-02T00:28:23.305Z,0
2018-07-02T00:29:24.700Z,0
2018-07-02T00:30:26.089Z,0
2018-07-02T00:31:27.486Z,0
2018-07-02T00:32:28.880Z,0
2018-07-02T00:33:30.271Z,0
2018-07-02T00:34:31.666Z,0
2018-07-02T00:35:33.057Z,0
2018-07-02T00:36:34.460Z,0
2018-07-02T00:37:35.854Z,0
2018-07-02T00:38:37.245Z,0
2018-07-02T00:39:38.638Z,0
2018-07-02T00:40:40.037Z,0
2018-07-02T00:41:41.427Z,0
2018-07-02T00:42:42.826Z,0
2018-07-02T00:43:44.215Z,0
2018-07-02T00:44:45.611Z,0
2018-07-02T00:45:47.002Z,0
2018-07-02T00:46:48.410Z,0
2018-07-02T00:47:49.804Z,0
2018-07-02T00:48:51.198Z,0
2018-07-02T00:49:52.592Z,0
2018-07-02T00:50:54.034Z,0
2018-07-02T00:51:55.436Z,0
2018-07-02T00:52:56.830Z,0
2018-07-02T00:53:58.216Z,0
2018-07-02T00:54:59.609Z,0
2018-07-02T00:56:01.003Z,0
2018-07-02T00:57:02.408Z,0
2018-07-02T00:58:03.800Z,0
2018-07-02T00:59:05.190Z,0
2018-07-02T01:00:06.584Z,0
2018-07-02T01:01:07.978Z,0
2018-07-02T01:02:09.369Z,0
2018-07-02T01:03:10.762Z,0
2018-07-02T01:04:12.160Z,0
2018-07-02T01:05:13.550Z,0
2018-07-02T01:06:14.943Z,0
2018-07-02T01:07:16.335Z,0
2018-07-02T01:08:17.731Z,0
2018-07-02T01:09:19.124Z,0
2018-07-02T01:10:20.520Z,0
2018-07-02T01:11:21.913Z,0
2018-07-02T01:12:23.333Z,0
2018-07-02T01:13:24.754Z,0
2018-07-02T01:14:26.128Z,0
2018-07-02T01:15:27.520Z,0
2018-07-02T01:16:28.909Z,0
2018-07-02T01:17:30.305Z,0
2018-07-02T01:18:31.699Z,0
2018-07-02T01:19:33.090Z,0
2018-07-02T01:20:34.483Z,0
2018-07-02T01:21:35.877Z,0
2018-07-02T01:22:37.272Z,0
2018-07-02T01:23:38.666Z,0
2018-07-02T01:24:40.059Z,0
2018-07-02T01:25:41.451Z,0
2018-07-02T01:26:42.859Z,0
2018-07-02T01:27:44.258Z,0
2018-07-02T01:28:45.649Z,0
2018-07-02T01:29:47.044Z,0
2018-07-02T01:30:48.434Z,0
2018-07-02T01:31:49.827Z,0
2018-07-02T01:32:51.219Z,0
2018-07-02T01:33:52.613Z,0
2018-07-02T01:34:54.012Z,0
2018-07-02T01:35:55.486Z,0
2018-07-02T01:36:56.890Z,0
2018-07-02T01:37:58.284Z,0
2018-07-02T01:38:59.676Z,0
2018-07-02T01:40:01.085Z,0
2018-07-02T01:41:02.482Z,0
2018-07-02T01:42:03.877Z,0
2018-07-02T01:43:05.263Z,0
2018-07-02T01:44:06.654Z,0
2018-07-02T01:45:08.046Z,0
2018-07-02T01:46:09.441Z,0
2018-07-02T01:47:10.832Z,0
2018-07-02T01:48:12.231Z,0
2018-07-02T01:49:13.640Z,0
2018-07-02T01:50:15.030Z,0
2018-07-02T01:51:16.421Z,0
2018-07-02T01:52:17.812Z,0
2018-07-02T01:53:19.206Z,0
2018-07-02T01:54:20.599Z,0
2018-07-02T01:55:21.998Z,0
2018-07-02T01:56:23.385Z,0
2018-07-02T01:57:24.775Z,0
2018-07-02T01:58:26.170Z,0
2018-07-02T01:59:27.563Z,0
2018-07-02T02:00:28.951Z,0
2018-07-02T02:01:30.352Z,0
2018-07-02T02:02:31.746Z,0
2018-07-02T02:03:33.136Z,0
2018-07-02T02:04:34.528Z,0
2018-07-02T02:05:35.918Z,0
2018-07-02T02:06:37.311Z,0
2018-07-02T02:07:38.707Z,0
2018-07-02T02:08:40.103Z,0
2018-07-02T02:09:41.500Z,0
2018-07-02T02:10:42.888Z,0
2018-07-02T02:11:44.282Z,0
2018-07-02T02:12:45.670Z,0
2018-07-02T02:13:47.064Z,0
2018-07-02T02:14:48.460Z,0
2018-07-02T02:15:49.852Z,0
2018-07-02T02:16:51.250Z,0
2018-07-02T02:17:52.638Z,0
2018-07-02T02:18:54.031Z,0
2018-07-02T02:19:55.438Z,0
2018-07-02T02:20:56.910Z,0
2018-07-02T02:21:58.306Z,0
2018-07-02T02:22:59.706Z,0
2018-07-02T02:24:01.098Z,0
2018-07-02T02:25:02.489Z,0
2018-07-02T02:26:03.887Z,0
2018-07-02T02:27:05.273Z,0
2018-07-02T02:28:06.667Z,0
2018-07-02T02:29:08.062Z,0
2018-07-02T02:30:09.457Z,0
2018-07-02T02:31:10.857Z,0
2018-07-02T02:32:12.249Z,0
2018-07-02T02:33:13.638Z,0
2018-07-02T02:34:15.038Z,0
2018-07-02T02:35:16.432Z,0
2018-07-02T02:36:17.823Z,0
2018-07-02T02:37:19.223Z,0
2018-07-02T02:38:20.667Z,0
2018-07-02T02:39:22.017Z,0
2018-07-02T02:40:23.407Z,0
2018-07-02T02:41:24.800Z,0
2018-07-02T02:42:26.189Z,0
2018-07-02T02:43:27.583Z,0
2018-07-02T02:44:28.978Z,0
2018-07-02T02:45:30.370Z,0
2018-07-02T02:46:31.765Z,0
2018-07-02T02:47:33.154Z,0
2018-07-02T02:48:34.544Z,0
2018-07-02T02:49:35.935Z,0
2018-07-02T02:50:37.327Z,0
2018-07-02T02:51:38.721Z,0
2018-07-02T02:52:40.117Z,0
2018-07-02T02:53:41.506Z,0
2018-07-02T02:54:42.903Z,0
2018-07-02T02:55:44.294Z,0
2018-07-02T02:56:45.684Z,0
2018-07-02T02:57:47.080Z,0
2018-07-02T02:58:48.474Z,0
2018-07-02T02:59:49.869Z,0
2018-07-02T03:00:51.257Z,0
2018-07-02T03:01:52.652Z,0
2018-07-02T03:02:54.041Z,0
2018-07-02T03:03:55.435Z,0
2018-07-02T03:04:56.882Z,0
2018-07-02T03:05:58.299Z,0
2018-07-02T03:06:59.691Z,0
2018-07-02T03:08:01.081Z,0
2018-07-02T03:09:02.475Z,0
2018-07-02T03:10:03.867Z,0
2018-07-02T03:11:05.260Z,0
2018-07-02T03:12:06.655Z,0
2018-07-02T03:13:08.047Z,0
2018-07-02T03:14:09.440Z,0
2018-07-02T03:15:10.839Z,0
2018-07-02T03:16:12.229Z,0
2018-07-02T03:17:13.622Z,0
2018-07-02T03:18:15.014Z,0
2018-07-02T03:19:16.418Z,0
2018-07-02T03:20:17.873Z,0
2018-07-02T03:21:19.210Z,0
2018-07-02T03:22:20.600Z,0
2018-07-02T03:23:21.990Z,0
2018-07-02T03:24:23.383Z,0
2018-07-02T03:25:24.775Z,0
2018-07-02T03:26:26.170Z,0
2018-07-02T03:27:27.566Z,0
2018-07-02T03:28:28.960Z,0
2018-07-02T03:29:30.355Z,0
2018-07-02T03:30:31.745Z,0
2018-07-02T03:31:33.138Z,0
2018-07-02T03:32:34.532Z,0
2018-07-02T03:33:35.923Z,0
2018-07-02T03:34:37.325Z,5
2018-07-02T03:35:38.718Z,5
2018-07-02T03:36:40.113Z,5
2018-07-02T03:37:41.506Z,5
2018-07-02T03:38:42.905Z,5
2018-07-02T03:39:44.294Z,5
2018-07-02T03:40:45.690Z,5
2018-07-02T03:41:47.087Z,5
2018-07-02T03:42:48.485Z,5
2018-07-02T03:43:49.880Z,5
2018-07-02T03:44:51.269Z,5
2018-07-02T03:45:52.662Z,5
2018-07-02T03:46:54.055Z,5
2018-07-02T03:47:55.451Z,5
2018-07-02T03:48:56.921Z,5
2018-07-02T03:49:58.355Z,5
2018-07-02T03:50:59.755Z,5
2018-07-02T03:52:01.151Z,5
2018-07-02T03:53:02.540Z,11
2018-07-02T03:54:03.935Z,11
2018-07-02T03:55:05.332Z,11
2018-07-02T03:56:06.729Z,11
2018-07-02T03:57:08.127Z,11
2018-07-02T03:58:09.520Z,11
2018-07-02T03:59:10.912Z,11
2018-07-02T04:00:12.308Z,11
2018-07-02T04:01:13.734Z,11
2018-07-02T04:02:15.111Z,11
2018-07-02T04:03:16.505Z,11
2018-07-02T04:04:17.902Z,11
2018-07-02T04:05:19.294Z,11
2018-07-02T04:06:20.688Z,11
2018-07-02T04:07:22.120Z,11
2018-07-02T04:08:23.544Z,11
2018-07-02T04:09:24.941Z,16
2018-07-02T04:10:26.337Z,16
2018-07-02T04:11:27.738Z,16
2018-07-02T04:12:29.131Z,16
2018-07-02T04:13:30.525Z,16
2018-07-02T04:14:31.921Z,16
2018-07-02T04:15:33.318Z,16
2018-07-02T04:16:34.714Z,16
2018-07-02T04:17:36.111Z,16
2018-07-02T04:18:37.507Z,16
2018-07-02T04:19:38.901Z,16
2018-07-02T04:20:40.295Z,16
2018-07-02T04:21:41.688Z,22
2018-07-02T04:22:43.093Z,22
2018-07-02T04:23:44.486Z,22
2018-07-02T04:24:45.883Z,22
2018-07-02T04:25:47.293Z,22
2018-07-02T04:26:48.671Z,22
2018-07-02T04:27:50.066Z,22
2018-07-02T04:28:51.460Z,22
2018-07-02T04:29:52.853Z,22
2018-07-02T04:30:54.250Z,22
2018-07-02T04:31:55.650Z,22
2018-07-02T04:32:57.046Z,22
2018-07-02T04:33:58.470Z,22
2018-07-02T04:34:59.885Z,22
2018-07-02T04:36:01.281Z,22
2018-07-02T04:37:02.680Z,22
2018-07-02T04:38:04.100Z,22
2018-07-02T04:39:05.501Z,28
2018-07-02T04:40:06.901Z,28
2018-07-02T04:41:08.297Z,28
2018-07-02T04:42:09.697Z,28
2018-07-02T04:43:11.101Z,28
2018-07-02T04:44:12.491Z,28
2018-07-02T04:45:13.900Z,28
2018-07-02T04:46:15.294Z,28
2018-07-02T04:47:16.682Z,28
2018-07-02T04:48:18.075Z,28
2018-07-02T04:49:19.472Z,28
2018-07-02T04:50:20.866Z,28
2018-07-02T04:51:22.317Z,28
2018-07-02T04:52:23.672Z,28
2018-07-02T04:53:25.082Z,28
2018-07-02T04:54:26.479Z,28
2018-07-02T04:55:27.874Z,28
2018-07-02T04:56:29.268Z,28
2018-07-02T04:57:30.662Z,28
2018-07-02T04:58:32.058Z,28
2018-07-02T04:59:33.458Z,28
2018-07-02T05:00:34.857Z,28
2018-07-02T05:01:36.251Z,28
2018-07-02T05:02:37.649Z,28
2018-07-02T05:03:39.044Z,33
2018-07-02T05:04:40.441Z,33
2018-07-02T05:05:41.839Z,33
2018-07-02T05:06:43.234Z,33
2018-07-02T05:07:44.628Z,33
2018-07-02T05:08:46.028Z,33
2018-07-02T05:09:47.422Z,33
2018-07-02T05:10:48.828Z,33
2018-07-02T05:11:50.236Z,33
2018-07-02T05:12:51.631Z,33
2018-07-02T05:13:53.181Z,33
2018-07-02T05:14:54.623Z,33
2018-07-02T05:15:56.021Z,33
2018-07-02T05:16:57.441Z,33
2018-07-02T05:17:58.864Z,33
2018-07-02T05:19:00.297Z,33
2018-07-02T05:20:01.694Z,33
2018-07-02T05:21:03.093Z,33
2018-07-02T05:22:04.488Z,33
2018-07-02T05:23:05.879Z,33
2018-07-02T05:24:07.275Z,33
2018-07-02T05:25:08.684Z,33
2018-07-02T05:26:10.078Z,33
2018-07-02T05:27:11.473Z,33
2018-07-02T05:28:12.871Z,33
2018-07-02T05:29:14.371Z,33
2018-07-02T05:30:15.768Z,39
2018-07-02T05:31:17.198Z,39
2018-07-02T05:32:18.558Z,39
2018-07-02T05:33:19.963Z,39
2018-07-02T05:34:21.392Z,39
2018-07-02T05:35:22.790Z,39
2018-07-02T05:36:24.195Z,39
2018-07-02T05:37:25.591Z,39
2018-07-02T05:38:27.081Z,39
2018-07-02T05:39:28.474Z,39
2018-07-02T05:40:29.869Z,39
2018-07-02T05:41:31.273Z,39
2018-07-02T05:42:32.731Z,39
2018-07-02T05:43:34.176Z,39
2018-07-02T05:44:35.581Z,39
2018-07-02T05:45:36.980Z,39
2018-07-02T05:46:38.377Z,39
2018-07-02T05:47:39.775Z,39
2018-07-02T05:48:41.226Z,39
2018-07-02T05:49:42.567Z,39
2018-07-02T05:50:43.960Z,39
2018-07-02T05:51:45.360Z,39
2018-07-02T05:52:46.755Z,45
2018-07-02T05:53:48.148Z,45
2018-07-02T05:54:49.547Z,45
2018-07-02T05:55:50.942Z,45
2018-07-02T05:56:52.340Z,45
2018-07-02T05:57:55.463Z,45
2018-07-02T05:58:56.007Z,45
2018-07-02T05:59:57.466Z,45
2018-07-02T06:00:58.866Z,45
2018-07-02T06:02:00.268Z,45
2018-07-02T06:03:01.662Z,45
2018-07-02T06:04:03.057Z,45
2018-07-02T06:05:04.457Z,45
2018-07-02T06:06:05.860Z,45
2018-07-02T06:07:07.255Z,45
2018-07-02T06:08:08.709Z,45
2018-07-02T06:09:10.044Z,45
2018-07-02T06:10:11.445Z,45
2018-07-02T06:11:12.841Z,50
2018-07-02T06:12:14.283Z,50
2018-07-02T06:13:15.653Z,50
2018-07-02T06:14:17.031Z,50
2018-07-02T06:15:18.429Z,50
2018-07-02T06:16:19.828Z,50
2018-07-02T06:17:21.221Z,50
2018-07-02T06:18:22.621Z,50
2018-07-02T06:19:24.022Z,50
2018-07-02T06:20:25.418Z,50
2018-07-02T06:21:26.817Z,50
2018-07-02T06:22:28.211Z,50
2018-07-02T06:23:29.607Z,50
2018-07-02T06:24:31.003Z,56
2018-07-02T06:25:32.403Z,56
2018-07-02T06:26:33.807Z,56
2018-07-02T06:27:35.206Z,56
2018-07-02T06:28:36.603Z,56
2018-07-02T06:29:38.004Z,56
2018-07-02T06:30:39.397Z,56
2018-07-02T06:31:40.791Z,56
2018-07-02T06:32:42.191Z,56
2018-07-02T06:33:43.588Z,56
2018-07-02T06:34:44.991Z,56
2018-07-02T06:35:46.386Z,61
2018-07-02T06:36:47.787Z,61
2018-07-02T06:37:49.181Z,61
2018-07-02T06:38:50.577Z,61
2018-07-02T06:39:52.013Z,61
2018-07-02T06:40:53.424Z,61
2018-07-02T06:41:54.842Z,61
2018-07-02T06:42:56.223Z,61
2018-07-02T06:43:57.623Z,61
2018-07-02T06:44:59.107Z,61
2018-07-02T06:46:00.543Z,61
2018-07-02T06:47:01.950Z,61
2018-07-02T06:48:03.345Z,61
2018-07-02T06:49:04.756Z,61
2018-07-02T06:50:06.151Z,61
2018-07-02T06:51:07.548Z,61
2018-07-02T06:52:08.949Z,61
2018-07-02T06:53:10.349Z,61
2018-07-02T06:54:11.747Z,61
2018-07-02T06:55:13.141Z,61
2018-07-02T06:56:14.540Z,67
2018-07-02T06:57:15.943Z,67
2018-07-02T06:58:17.337Z,67
2018-07-02T06:59:18.735Z,67
2018-07-02T07:00:20.133Z,67
2018-07-02T07:01:21.529Z,67
2018-07-02T07:02:22.928Z,67
2018-07-02T07:03:24.329Z,73
2018-07-02T07:04:25.726Z,73
2018-07-02T07:05:27.124Z,73
2018-07-02T07:06:28.521Z,73
2018-07-02T07:07:29.918Z,73
2018-07-02T07:08:31.365Z,78
2018-07-02T07:09:32.718Z,78
2018-07-02T07:10:34.120Z,78
2018-07-02T07:11:35.514Z,78
2018-07-02T07:12:36.912Z,78
2018-07-02T07:13:38.311Z,78
2018-07-02T07:14:39.713Z,84
2018-07-02T07:15:41.188Z,84
2018-07-02T07:16:42.515Z,84
2018-07-02T07:17:43.916Z,84
2018-07-02T07:18:45.310Z,84
2018-07-02T07:19:46.709Z,84
2018-07-02T07:20:48.109Z,90
2018-07-02T07:21:49.506Z,90
2018-07-02T07:22:50.910Z,90
2018-07-02T07:23:52.309Z,90
2018-07-02T07:24:53.713Z,90
2018-07-02T07:25:55.113Z,90
2018-07-02T07:26:56.508Z,95
2018-07-02T07:27:57.905Z,95
2018-07-02T07:28:59.385Z,95
2018-07-02T07:30:00.807Z,95
2018-07-02T07:31:02.230Z,95
2018-07-02T07:32:03.601Z,95
2018-07-02T07:33:05.000Z,101
2018-07-02T07:34:06.397Z,101
2018-07-02T07:35:07.803Z,101
2018-07-02T07:36:09.200Z,101
2018-07-02T07:37:10.600Z,101
2018-07-02T07:38:11.995Z,101
2018-07-02T07:39:13.398Z,101
2018-07-02T07:40:14.800Z,101
2018-07-02T07:41:16.254Z,101
2018-07-02T07:42:17.592Z,106
2018-07-02T07:43:18.998Z,106
2018-07-02T07:44:20.398Z,106
2018-07-02T07:45:21.802Z,106
2018-07-02T07:46:23.205Z,106
2018-07-02T07:47:24.605Z,106
2018-07-02T07:48:26.007Z,106
2018-07-02T07:49:27.404Z,106
2018-07-02T07:50:28.803Z,106
2018-07-02T07:51:30.204Z,106
2018-07-02T07:52:31.605Z,106
2018-07-02T07:53:33.009Z,106
2018-07-02T07:54:34.408Z,106
2018-07-02T07:55:35.801Z,106
2018-07-02T07:56:37.205Z,106
2018-07-02T07:57:38.603Z,112
2018-07-02T07:58:40.074Z,112
2018-07-02T07:59:41.480Z,112
2018-07-02T08:00:42.881Z,112
2018-07-02T08:01:44.280Z,112
2018-07-02T08:02:45.684Z,112
2018-07-02T08:03:47.075Z,112
2018-07-02T08:04:48.474Z,118
2018-07-02T08:05:49.876Z,118
2018-07-02T08:06:51.275Z,118
2018-07-02T08:07:52.677Z,118
2018-07-02T08:08:54.077Z,118
2018-07-02T08:09:55.476Z,118
2018-07-02T08:10:56.879Z,123
2018-07-02T08:11:58.310Z,123
2018-07-02T08:12:59.746Z,123
2018-07-02T08:14:01.131Z,123
2018-07-02T08:15:02.533Z,123
2018-07-02T08:16:03.940Z,123
2018-07-02T08:17:05.339Z,129
2018-07-02T08:18:06.736Z,129
2018-07-02T08:19:08.210Z,129
2018-07-02T08:20:09.554Z,129
2018-07-02T08:21:10.967Z,129
2018-07-02T08:22:12.371Z,129
2018-07-02T08:23:13.770Z,135
2018-07-02T08:24:15.178Z,135
2018-07-02T08:25:16.574Z,135
2018-07-02T08:26:17.976Z,135
2018-07-02T08:27:19.393Z,135
2018-07-02T08:28:20.783Z,135
2018-07-02T08:29:22.233Z,140
2018-07-02T08:30:23.658Z,140
2018-07-02T08:31:25.053Z,140
2018-07-02T08:32:26.461Z,140
2018-07-02T08:33:27.865Z,140
2018-07-02T08:34:29.268Z,140
2018-07-02T08:35:30.670Z,146
2018-07-02T08:36:32.072Z,146
2018-07-02T08:37:33.472Z,146
2018-07-02T08:38:34.871Z,146
2018-07-02T08:39:36.292Z,146
2018-07-02T08:40:37.686Z,151
2018-07-02T08:41:39.092Z,151
2018-07-02T08:42:40.493Z,151
2018-07-02T08:43:41.895Z,151
2018-07-02T08:44:43.295Z,151
2018-07-02T08:45:44.690Z,163
2018-07-02T08:46:46.148Z,157
2018-07-02T08:47:47.505Z,157
2018-07-02T08:48:48.906Z,157
2018-07-02T08:49:50.307Z,163
2018-07-02T08:50:51.712Z,163
2018-07-02T08:51:53.114Z,163
2018-07-02T08:52:54.514Z,163
2018-07-02T08:53:55.916Z,163
2018-07-02T08:54:57.316Z,163
2018-07-02T08:55:58.720Z,168
2018-07-02T08:57:00.133Z,168
2018-07-02T08:58:01.559Z,168
2018-07-02T08:59:02.950Z,168
2018-07-02T09:00:04.359Z,168
2018-07-02T09:01:05.760Z,174
2018-07-02T09:02:07.161Z,174
2018-07-02T09:03:08.576Z,174
2018-07-02T09:04:09.978Z,174
2018-07-02T09:05:11.381Z,174
2018-07-02T09:06:12.781Z,174
2018-07-02T09:07:14.181Z,180
2018-07-02T09:08:15.590Z,180
2018-07-02T09:09:16.999Z,180
2018-07-02T09:10:18.436Z,180
2018-07-02T09:11:19.803Z,180
2018-07-02T09:12:21.208Z,180
2018-07-02T09:13:22.607Z,185
2018-07-02T09:14:24.015Z,185
2018-07-02T09:15:25.417Z,185
2018-07-02T09:16:26.818Z,185
2018-07-02T09:17:28.220Z,191
2018-07-02T09:18:29.620Z,191
2018-07-02T09:19:31.024Z,191
2018-07-02T09:20:32.430Z,191
2018-07-02T09:21:33.825Z,196
2018-07-02T09:22:35.229Z,196
2018-07-02T09:23:36.629Z,196
2018-07-02T09:24:38.035Z,202
2018-07-02T09:25:39.436Z,202
2018-07-02T09:26:40.837Z,202
2018-07-02T09:27:42.235Z,208
2018-07-02T09:28:43.633Z,208
2018-07-02T09:29:45.035Z,208
2018-07-02T09:30:46.435Z,208
2018-07-02T09:31:47.840Z,213
2018-07-02T09:32:49.242Z,213
2018-07-02T09:33:50.643Z,213
2018-07-02T09:34:52.044Z,219
2018-07-02T09:35:53.444Z,225
2018-07-02T09:36:54.849Z,219
2018-07-02T09:37:56.245Z,230
2018-07-02T09:38:57.672Z,225
2018-07-02T09:39:59.075Z,230
2018-07-02T09:41:00.479Z,230
2018-07-02T09:42:01.885Z,230
2018-07-02T09:43:03.289Z,236
2018-07-02T09:44:04.684Z,236
2018-07-02T09:45:06.087Z,236
2018-07-02T09:46:07.495Z,241
2018-07-02T09:47:08.896Z,241
2018-07-02T09:48:10.300Z,241
2018-07-02T09:49:11.700Z,247
2018-07-02T09:50:13.118Z,247
2018-07-02T09:51:14.520Z,253
2018-07-02T09:52:15.921Z,253
2018-07-02T09:53:17.327Z,258
2018-07-02T09:54:18.747Z,258
2018-07-02T09:55:20.182Z,258
2018-07-02T09:56:21.670Z,258
2018-07-02T09:57:23.071Z,258
2018-07-02T09:58:24.500Z,264
2018-07-02T09:59:25.946Z,264
2018-07-02T10:00:27.393Z,270
2018-07-02T10:01:28.797Z,270
2018-07-02T10:02:30.198Z,275
2018-07-02T10:03:31.695Z,275
2018-07-02T10:04:33.310Z,281
2018-07-02T10:05:34.748Z,281
2018-07-02T10:06:36.216Z,286
2018-07-02T10:07:37.595Z,292
2018-07-02T10:08:39.005Z,292
2018-07-02T10:09:40.404Z,292
2018-07-02T10:10:41.808Z,298
2018-07-02T10:11:43.208Z,303
2018-07-02T10:12:44.611Z,303
2018-07-02T10:13:46.016Z,309
2018-07-02T10:14:47.417Z,309
2018-07-02T10:15:48.826Z,315
2018-07-02T10:16:50.233Z,320
2018-07-02T10:17:51.634Z,326
2018-07-02T10:18:53.035Z,326
2018-07-02T10:19:54.441Z,331
2018-07-02T10:20:55.843Z,337
2018-07-02T10:21:57.250Z,337
2018-07-02T10:22:58.651Z,337
2018-07-02T10:24:00.067Z,337
2018-07-02T10:25:01.561Z,343
2018-07-02T10:26:02.965Z,354
2018-07-02T10:27:04.368Z,354
2018-07-02T10:28:05.771Z,354
2018-07-02T10:29:07.202Z,360
2018-07-02T10:30:08.574Z,365
2018-07-02T10:31:10.042Z,365
2018-07-02T10:32:11.386Z,371
2018-07-02T10:33:12.786Z,376
2018-07-02T10:34:14.189Z,382
2018-07-02T10:35:15.596Z,388
2018-07-02T10:36:16.995Z,399
2018-07-02T10:37:18.404Z,399
2018-07-02T10:38:19.810Z,399
2018-07-02T10:39:21.212Z,410
2018-07-02T10:40:22.605Z,410
2018-07-02T10:41:24.012Z,421
2018-07-02T10:42:25.421Z,427
2018-07-02T10:43:26.824Z,427
2018-07-02T10:44:28.232Z,427
2018-07-02T10:45:29.638Z,433
2018-07-02T10:46:31.043Z,438
2018-07-02T10:47:32.453Z,444
2018-07-02T10:48:33.858Z,450
2018-07-02T10:49:35.263Z,461
2018-07-02T10:50:36.669Z,466
2018-07-02T10:51:38.077Z,472
2018-07-02T10:52:39.482Z,483
2018-07-02T10:53:40.890Z,495
2018-07-02T10:54:42.291Z,495
2018-07-02T10:55:43.736Z,500
2018-07-02T10:56:45.099Z,511
2018-07-02T10:57:46.507Z,517
2018-07-02T10:58:47.908Z,528
2018-07-02T10:59:49.317Z,528
2018-07-02T11:00:50.722Z,540
2018-07-02T11:01:52.125Z,551
2018-07-02T11:02:53.530Z,556
2018-07-02T11:03:54.935Z,568
2018-07-02T11:04:56.341Z,585
2018-07-02T11:05:57.753Z,596
2018-07-02T11:06:59.164Z,607
2018-07-02T11:08:00.654Z,618
2018-07-02T11:09:02.064Z,630
2018-07-02T11:10:03.470Z,635
2018-07-02T11:11:04.944Z,652
2018-07-02T11:12:06.283Z,669
2018-07-02T11:13:07.691Z,686
2018-07-02T11:14:09.108Z,703
2018-07-02T11:15:10.511Z,720
2018-07-02T11:16:11.917Z,736
2018-07-02T11:17:13.346Z,759
2018-07-02T11:18:14.730Z,787
2018-07-02T11:19:16.138Z,810
2018-07-02T11:20:17.547Z,838
2018-07-02T11:21:18.957Z,860
2018-07-02T11:22:20.364Z,900
2018-07-02T11:23:21.764Z,933
2018-07-02T11:24:23.170Z,973
2018-07-02T11:25:24.578Z,1006
2018-07-02T11:26:25.986Z,1040
2018-07-02T11:27:27.399Z,1063
2018-07-02T11:28:28.813Z,1091
2018-07-02T11:29:30.213Z,1108
2018-07-02T11:30:31.625Z,1125
2018-07-02T11:31:33.035Z,1141
2018-07-02T11:32:34.442Z,1158
2018-07-02T11:33:35.867Z,1164
2018-07-02T11:34:37.277Z,1164
2018-07-02T11:35:38.687Z,1164
2018-07-02T11:36:40.095Z,1164
2018-07-02T11:37:41.501Z,1158
2018-07-02T11:38:42.910Z,1158
2018-07-02T11:39:44.320Z,1153
2018-07-02T11:40:45.731Z,1147
2018-07-02T11:41:47.145Z,1153
2018-07-02T11:42:48.550Z,1136
2018-07-02T11:43:49.961Z,1130
2018-07-02T11:44:51.369Z,1113
2018-07-02T11:45:52.777Z,1113
2018-07-02T11:46:54.185Z,1108
2018-07-02T11:47:55.595Z,1096
2018-07-02T11:48:57.007Z,1091
2018-07-02T11:49:58.419Z,1085
2018-07-02T11:50:59.833Z,1074
2018-07-02T11:52:01.272Z,1074
2018-07-02T11:53:02.697Z,1074
2018-07-02T11:54:04.100Z,1074
2018-07-02T11:55:05.516Z,1068
2018-07-02T11:56:06.917Z,1068
2018-07-02T11:57:08.334Z,1068
2018-07-02T11:58:09.737Z,1068
2018-07-02T11:59:11.148Z,1063
2018-07-02T12:00:12.553Z,1063
2018-07-02T12:01:13.968Z,1063
2018-07-02T12:02:15.390Z,1068
2018-07-02T12:03:16.800Z,1080
2018-07-02T12:04:18.242Z,1063
2018-07-02T12:05:19.623Z,1068
2018-07-02T12:06:21.027Z,1068
2018-07-02T12:07:22.435Z,1063
2018-07-02T12:08:23.848Z,1068
2018-07-02T12:09:25.258Z,1068
2018-07-02T12:10:26.670Z,1063
2018-07-02T12:11:28.083Z,1068
2018-07-02T12:12:29.494Z,1063
2018-07-02T12:13:30.911Z,1074
2018-07-02T12:14:32.323Z,1068
2018-07-02T12:15:33.733Z,1063
2018-07-02T12:16:35.144Z,1057
2018-07-02T12:17:36.555Z,1057
2018-07-02T12:18:37.965Z,1063
2018-07-02T12:19:39.379Z,1057
2018-07-02T12:20:40.789Z,1063
2018-07-02T12:21:42.200Z,1063
2018-07-02T12:22:43.610Z,1051
2018-07-02T12:23:45.022Z,1057
2018-07-02T12:24:46.433Z,1063
2018-07-02T12:25:47.844Z,1051
2018-07-02T12:26:49.270Z,1051
2018-07-02T12:27:50.668Z,1051
2018-07-02T12:28:52.078Z,1051
2018-07-02T12:29:53.487Z,1046
2018-07-02T12:30:54.902Z,1051
2018-07-02T12:31:56.320Z,1040
2018-07-02T12:32:57.738Z,1040
2018-07-02T12:33:59.151Z,1040
2018-07-02T12:35:00.621Z,1029
2018-07-02T12:36:02.053Z,1029
2018-07-02T12:37:03.466Z,1029
2018-07-02T12:38:04.876Z,1023
2018-07-02T12:39:06.286Z,1018
2018-07-02T12:40:07.702Z,1018
2018-07-02T12:41:09.157Z,1018
2018-07-02T12:42:10.518Z,1023
2018-07-02T12:43:11.929Z,1018
2018-07-02T12:44:13.341Z,1006
2018-07-02T12:45:14.750Z,1001
2018-07-02T12:46:16.233Z,1006
2018-07-02T12:47:17.728Z,1001
2018-07-02T12:48:19.138Z,1001
2018-07-02T12:49:20.554Z,1006
2018-07-02T12:50:21.963Z,995
2018-07-02T12:51:23.370Z,995
2018-07-02T12:52:24.785Z,990
2018-07-02T12:53:26.198Z,984
2018-07-02T12:54:27.697Z,984
2018-07-02T12:55:29.019Z,978
2018-07-02T12:56:30.429Z,978
2018-07-02T12:57:31.839Z,973
2018-07-02T12:58:33.248Z,973
2018-07-02T12:59:34.662Z,973
2018-07-02T13:00:36.071Z,967
2018-07-02T13:01:37.484Z,961
2018-07-02T13:02:38.890Z,961
2018-07-02T13:03:40.301Z,961
2018-07-02T13:04:41.722Z,961
2018-07-02T13:05:43.118Z,961
2018-07-02T13:06:44.530Z,956
2018-07-02T13:07:45.941Z,956
2018-07-02T13:08:47.354Z,956
2018-07-02T13:09:48.763Z,956
2018-07-02T13:10:50.177Z,956
2018-07-02T13:11:51.583Z,956
2018-07-02T13:12:52.995Z,961
2018-07-02T13:13:54.406Z,956
2018-07-02T13:14:55.825Z,956
2018-07-02T13:15:57.236Z,956
2018-07-02T13:16:58.643Z,961
2018-07-02T13:18:00.075Z,956
2018-07-02T13:19:01.502Z,956
2018-07-02T13:20:02.913Z,956
2018-07-02T13:21:04.331Z,961
2018-07-02T13:22:05.745Z,956
2018-07-02T13:23:07.156Z,950
2018-07-02T13:24:08.589Z,950
2018-07-02T13:25:09.996Z,956
2018-07-02T13:26:11.403Z,950
2018-07-02T13:27:12.816Z,950
2018-07-02T13:28:14.228Z,950
2018-07-02T13:29:15.651Z,950
2018-07-02T13:30:17.100Z,945
2018-07-02T13:31:18.470Z,945
2018-07-02T13:32:19.885Z,945
2018-07-02T13:33:21.286Z,945
2018-07-02T13:34:22.700Z,945
2018-07-02T13:35:24.111Z,945
2018-07-02T13:36:25.571Z,945
2018-07-02T13:37:26.939Z,945
2018-07-02T13:38:28.352Z,939
2018-07-02T13:39:29.758Z,945
2018-07-02T13:40:31.168Z,939
2018-07-02T13:41:32.635Z,939
2018-07-02T13:42:33.990Z,933
2018-07-02T13:43:35.412Z,933
2018-07-02T13:44:36.825Z,933
2018-07-02T13:45:38.241Z,933
2018-07-02T13:46:39.658Z,933
2018-07-02T13:47:41.069Z,928
2018-07-02T13:48:42.482Z,928
2018-07-02T13:49:43.902Z,922
2018-07-02T13:50:45.314Z,916
2018-07-02T13:51:46.729Z,911
2018-07-02T13:52:48.135Z,911
2018-07-02T13:53:49.554Z,905
2018-07-02T13:54:51.018Z,900
2018-07-02T13:55:52.422Z,894
2018-07-02T13:56:53.836Z,888
2018-07-02T13:57:55.248Z,894
2018-07-02T13:58:56.669Z,883
2018-07-02T13:59:58.082Z,877
2018-07-02T14:00:59.538Z,871
2018-07-02T14:02:00.950Z,866
2018-07-02T14:03:02.365Z,855
2018-07-02T14:04:03.771Z,855
2018-07-02T14:05:05.197Z,849
2018-07-02T14:06:06.610Z,849
2018-07-02T14:07:08.020Z,838
2018-07-02T14:08:09.426Z,838
2018-07-02T14:09:10.846Z,832
2018-07-02T14:10:12.273Z,826
2018-07-02T14:11:13.688Z,826
2018-07-02T14:12:15.105Z,821
2018-07-02T14:13:16.514Z,821
2018-07-02T14:14:17.934Z,815
2018-07-02T14:15:19.335Z,815
2018-07-02T14:16:20.750Z,804
2018-07-02T14:17:22.161Z,810
2018-07-02T14:18:23.580Z,804
2018-07-02T14:19:24.983Z,798
2018-07-02T14:20:26.406Z,793
2018-07-02T14:21:27.807Z,793
2018-07-02T14:22:29.222Z,787
2018-07-02T14:23:30.631Z,793
2018-07-02T14:24:32.035Z,781
2018-07-02T14:25:33.451Z,776
2018-07-02T14:26:34.864Z,776